sensor_id;sensor_type;location;lat;lon;timestamp;P1;durP1;ratioP1;P2;durP2;ratioP2
45344;SDS011;31078;48.304;11.896;2023-04-25T00:00:51;45.78;;;4.85;;
45344;SDS011;31078;48.304;11.896;2023-04-25T00:03:18;19.30;;;3.25;;
45344;SDS011;31078;48.304;11.896;2023-04-25T00:05:46;37.67;;;4.30;;
45344;SDS011;31078;48.304;11.896;2023-04-25T00:08:12;32.08;;;3.55;;
45344;SDS011;31078;48.304;11.896;2023-04-25T00:10:39;30.35;;;3.50;;
45344;SDS011;31078;48.304;11.896;2023-04-25T00:13:05;57.67;;;5.00;;
45344;SDS011;31078;48.304;11.896;2023-04-25T00:15:33;16.77;;;2.88;;
45344;SDS011;31078;48.304;11.896;2023-04-25T00:18:01;24.60;;;3.85;;
45344;SDS011;31078;48.304;11.896;2023-04-25T00:20:27;16.90;;;3.05;;
45344;SDS011;31078;48.304;11.896;2023-04-25T00:22:57;36.88;;;4.72;;
45344;SDS011;31078;48.304;11.896;2023-04-25T00:25:24;27.20;;;3.47;;
45344;SDS011;31078;48.304;11.896;2023-04-25T00:27:51;44.72;;;4.93;;
45344;SDS011;31078;48.304;11.896;2023-04-25T00:30:17;25.20;;;3.63;;
45344;SDS011;31078;48.304;11.896;2023-04-25T00:32:44;25.67;;;3.85;;
45344;SDS011;31078;48.304;11.896;2023-04-25T00:35:10;26.27;;;3.85;;
45344;SDS011;31078;48.304;11.896;2023-04-25T00:37:37;12.50;;;2.95;;
45344;SDS011;31078;48.304;11.896;2023-04-25T00:40:06;24.83;;;4.35;;
45344;SDS011;31078;48.304;11.896;2023-04-25T00:42:33;22.88;;;4.00;;
45344;SDS011;31078;48.304;11.896;2023-04-25T00:45:01;26.45;;;4.28;;
45344;SDS011;31078;48.304;11.896;2023-04-25T00:47:31;19.67;;;3.85;;
45344;SDS011;31078;48.304;11.896;2023-04-25T00:49:58;30.70;;;4.07;;
45344;SDS011;31078;48.304;11.896;2023-04-25T00:52:25;24.58;;;3.95;;
45344;SDS011;31078;48.304;11.896;2023-04-25T00:54:51;21.08;;;4.68;;
45344;SDS011;31078;48.304;11.896;2023-04-25T00:57:19;21.45;;;3.97;;
45344;SDS011;31078;48.304;11.896;2023-04-25T00:59:46;26.35;;;4.80;;
45344;SDS011;31078;48.304;11.896;2023-04-25T01:02:12;17.92;;;3.75;;
45344;SDS011;31078;48.304;11.896;2023-04-25T01:04:39;28.13;;;3.90;;
45344;SDS011;31078;48.304;11.896;2023-04-25T01:07:05;24.70;;;3.75;;
45344;SDS011;31078;48.304;11.896;2023-04-25T01:09:33;32.33;;;4.38;;
45344;SDS011;31078;48.304;11.896;2023-04-25T01:11:59;32.95;;;4.53;;
45344;SDS011;31078;48.304;11.896;2023-04-25T01:14:28;28.83;;;4.18;;
45344;SDS011;31078;48.304;11.896;2023-04-25T01:16:54;54.97;;;5.25;;
45344;SDS011;31078;48.304;11.896;2023-04-25T01:19:22;38.47;;;4.18;;
45344;SDS011;31078;48.304;11.896;2023-04-25T01:21:50;44.70;;;4.50;;
45344;SDS011;31078;48.304;11.896;2023-04-25T01:24:17;22.30;;;3.63;;
45344;SDS011;31078;48.304;11.896;2023-04-25T01:26:44;38.80;;;5.13;;
45344;SDS011;31078;48.304;11.896;2023-04-25T01:29:14;25.83;;;4.10;;
45344;SDS011;31078;48.304;11.896;2023-04-25T01:31:41;20.50;;;3.83;;
45344;SDS011;31078;48.304;11.896;2023-04-25T01:34:08;35.10;;;4.70;;
45344;SDS011;31078;48.304;11.896;2023-04-25T01:36:35;49.05;;;4.50;;
45344;SDS011;31078;48.304;11.896;2023-04-25T01:39:03;26.90;;;3.53;;
45344;SDS011;31078;48.304;11.896;2023-04-25T01:41:29;56.85;;;4.80;;
45344;SDS011;31078;48.304;11.896;2023-04-25T01:43:56;49.17;;;4.30;;
45344;SDS011;31078;48.304;11.896;2023-04-25T01:46:23;22.27;;;3.72;;
45344;SDS011;31078;48.304;11.896;2023-04-25T01:48:50;46.10;;;4.78;;
45344;SDS011;31078;48.304;11.896;2023-04-25T01:51:16;34.35;;;4.65;;
45344;SDS011;31078;48.304;11.896;2023-04-25T01:53:43;27.05;;;3.60;;
45344;SDS011;31078;48.304;11.896;2023-04-25T01:56:11;22.13;;;3.67;;
45344;SDS011;31078;48.304;11.896;2023-04-25T01:58:38;33.58;;;4.43;;
45344;SDS011;31078;48.304;11.896;2023-04-25T02:01:04;11.98;;;2.90;;
45344;SDS011;31078;48.304;11.896;2023-04-25T02:03:31;39.50;;;3.95;;
45344;SDS011;31078;48.304;11.896;2023-04-25T02:05:58;32.70;;;4.15;;
45344;SDS011;31078;48.304;11.896;2023-04-25T02:08:25;22.42;;;3.65;;
45344;SDS011;31078;48.304;11.896;2023-04-25T02:10:51;40.38;;;4.82;;
45344;SDS011;31078;48.304;11.896;2023-04-25T02:13:19;16.05;;;3.70;;
45344;SDS011;31078;48.304;11.896;2023-04-25T02:15:46;30.30;;;4.57;;
45344;SDS011;31078;48.304;11.896;2023-04-25T02:18:12;17.35;;;3.22;;
45344;SDS011;31078;48.304;11.896;2023-04-25T02:20:41;34.72;;;4.30;;
45344;SDS011;31078;48.304;11.896;2023-04-25T02:23:07;39.67;;;4.35;;
45344;SDS011;31078;48.304;11.896;2023-04-25T02:25:34;35.42;;;4.78;;
45344;SDS011;31078;48.304;11.896;2023-04-25T02:28:00;35.53;;;4.68;;
45344;SDS011;31078;48.304;11.896;2023-04-25T02:30:28;40.05;;;4.45;;
45344;SDS011;31078;48.304;11.896;2023-04-25T02:32:54;52.45;;;4.88;;
45344;SDS011;31078;48.304;11.896;2023-04-25T02:35:21;27.70;;;4.47;;
45344;SDS011;31078;48.304;11.896;2023-04-25T02:37:48;33.95;;;3.78;;
45344;SDS011;31078;48.304;11.896;2023-04-25T02:40:14;30.67;;;3.65;;
45344;SDS011;31078;48.304;11.896;2023-04-25T02:42:41;33.80;;;4.13;;
45344;SDS011;31078;48.304;11.896;2023-04-25T02:45:08;37.70;;;3.97;;
45344;SDS011;31078;48.304;11.896;2023-04-25T02:47:36;33.47;;;4.05;;
45344;SDS011;31078;48.304;11.896;2023-04-25T02:50:03;29.05;;;3.70;;
45344;SDS011;31078;48.304;11.896;2023-04-25T02:52:30;34.85;;;4.32;;
45344;SDS011;31078;48.304;11.896;2023-04-25T02:54:56;54.03;;;4.90;;
45344;SDS011;31078;48.304;11.896;2023-04-25T02:57:23;29.85;;;3.65;;
45344;SDS011;31078;48.304;11.896;2023-04-25T02:59:50;38.40;;;4.43;;
45344;SDS011;31078;48.304;11.896;2023-04-25T03:02:16;32.65;;;4.45;;
45344;SDS011;31078;48.304;11.896;2023-04-25T03:04:44;28.13;;;3.83;;
45344;SDS011;31078;48.304;11.896;2023-04-25T03:07:11;47.25;;;4.43;;
45344;SDS011;31078;48.304;11.896;2023-04-25T03:09:37;33.60;;;3.85;;
45344;SDS011;31078;48.304;11.896;2023-04-25T03:12:04;23.08;;;4.20;;
45344;SDS011;31078;48.304;11.896;2023-04-25T03:14:31;31.80;;;4.20;;
45344;SDS011;31078;48.304;11.896;2023-04-25T03:16:57;33.05;;;4.22;;
45344;SDS011;31078;48.304;11.896;2023-04-25T03:19:23;41.85;;;4.03;;
45344;SDS011;31078;48.304;11.896;2023-04-25T03:21:51;48.28;;;4.40;;
45344;SDS011;31078;48.304;11.896;2023-04-25T03:24:18;33.45;;;4.10;;
45344;SDS011;31078;48.304;11.896;2023-04-25T03:26:45;43.38;;;4.35;;
45344;SDS011;31078;48.304;11.896;2023-04-25T03:29:12;43.03;;;4.65;;
45344;SDS011;31078;48.304;11.896;2023-04-25T03:31:38;54.67;;;4.95;;
45344;SDS011;31078;48.304;11.896;2023-04-25T03:34:04;48.80;;;4.63;;
45344;SDS011;31078;48.304;11.896;2023-04-25T03:36:31;28.25;;;3.97;;
45344;SDS011;31078;48.304;11.896;2023-04-25T03:38:59;34.75;;;4.15;;
45344;SDS011;31078;48.304;11.896;2023-04-25T03:41:25;42.97;;;4.13;;
45344;SDS011;31078;48.304;11.896;2023-04-25T03:43:52;33.83;;;4.05;;
45344;SDS011;31078;48.304;11.896;2023-04-25T03:46:19;38.55;;;3.90;;
45344;SDS011;31078;48.304;11.896;2023-04-25T03:48:45;39.00;;;4.57;;
45344;SDS011;31078;48.304;11.896;2023-04-25T03:51:12;43.78;;;4.25;;
45344;SDS011;31078;48.304;11.896;2023-04-25T03:53:38;22.15;;;3.15;;
45344;SDS011;31078;48.304;11.896;2023-04-25T03:56:06;47.75;;;5.18;;
45344;SDS011;31078;48.304;11.896;2023-04-25T03:58:33;26.63;;;4.40;;
45344;SDS011;31078;48.304;11.896;2023-04-25T04:00:59;55.53;;;5.35;;
45344;SDS011;31078;48.304;11.896;2023-04-25T04:03:27;33.67;;;4.68;;
45344;SDS011;31078;48.304;11.896;2023-04-25T04:05:54;41.65;;;4.65;;
45344;SDS011;31078;48.304;11.896;2023-04-25T04:08:20;25.13;;;3.78;;
45344;SDS011;31078;48.304;11.896;2023-04-25T04:10:47;44.10;;;5.05;;
45344;SDS011;31078;48.304;11.896;2023-04-25T04:13:14;21.58;;;4.03;;
45344;SDS011;31078;48.304;11.896;2023-04-25T04:15:41;39.60;;;4.85;;
45344;SDS011;31078;48.304;11.896;2023-04-25T04:18:07;25.90;;;4.13;;
45344;SDS011;31078;48.304;11.896;2023-04-25T04:20:34;39.20;;;4.40;;
45344;SDS011;31078;48.304;11.896;2023-04-25T04:23:01;56.88;;;5.25;;
45344;SDS011;31078;48.304;11.896;2023-04-25T04:25:28;30.20;;;4.65;;
45344;SDS011;31078;48.304;11.896;2023-04-25T04:27:55;49.53;;;5.40;;
45344;SDS011;31078;48.304;11.896;2023-04-25T04:30:23;32.65;;;4.47;;
45344;SDS011;31078;48.304;11.896;2023-04-25T04:32:50;40.58;;;4.65;;
45344;SDS011;31078;48.304;11.896;2023-04-25T04:35:17;26.95;;;4.57;;
45344;SDS011;31078;48.304;11.896;2023-04-25T04:37:43;24.20;;;3.65;;
45344;SDS011;31078;48.304;11.896;2023-04-25T04:40:10;29.58;;;4.05;;
45344;SDS011;31078;48.304;11.896;2023-04-25T04:42:40;38.40;;;4.28;;
45344;SDS011;31078;48.304;11.896;2023-04-25T04:45:07;35.05;;;4.25;;
45344;SDS011;31078;48.304;11.896;2023-04-25T04:47:35;36.67;;;4.20;;
45344;SDS011;31078;48.304;11.896;2023-04-25T04:50:02;35.05;;;4.35;;
45344;SDS011;31078;48.304;11.896;2023-04-25T04:52:29;24.00;;;4.10;;
45344;SDS011;31078;48.304;11.896;2023-04-25T04:54:55;31.25;;;4.80;;
45344;SDS011;31078;48.304;11.896;2023-04-25T04:57:22;16.80;;;3.80;;
45344;SDS011;31078;48.304;11.896;2023-04-25T04:59:48;29.52;;;4.28;;
45344;SDS011;31078;48.304;11.896;2023-04-25T05:02:15;17.15;;;4.70;;
45344;SDS011;31078;48.304;11.896;2023-04-25T05:04:43;25.58;;;4.35;;
45344;SDS011;31078;48.304;11.896;2023-04-25T05:07:10;24.23;;;4.00;;
45344;SDS011;31078;48.304;11.896;2023-04-25T05:09:36;28.67;;;4.43;;
45344;SDS011;31078;48.304;11.896;2023-04-25T05:12:03;19.25;;;3.63;;
45344;SDS011;31078;48.304;11.896;2023-04-25T05:14:29;21.50;;;3.92;;
45344;SDS011;31078;48.304;11.896;2023-04-25T05:16:56;19.30;;;3.75;;
45344;SDS011;31078;48.304;11.896;2023-04-25T05:19:23;20.98;;;3.20;;
45344;SDS011;31078;48.304;11.896;2023-04-25T05:21:51;21.58;;;3.47;;
45344;SDS011;31078;48.304;11.896;2023-04-25T05:24:18;19.63;;;3.40;;
45344;SDS011;31078;48.304;11.896;2023-04-25T05:26:44;10.20;;;2.88;;
45344;SDS011;31078;48.304;11.896;2023-04-25T05:29:10;6.70;;;3.03;;
45344;SDS011;31078;48.304;11.896;2023-04-25T05:31:37;8.52;;;3.35;;
45344;SDS011;31078;48.304;11.896;2023-04-25T05:34:04;22.52;;;3.53;;
45344;SDS011;31078;48.304;11.896;2023-04-25T05:36:30;18.67;;;3.28;;
45344;SDS011;31078;48.304;11.896;2023-04-25T05:38:59;22.98;;;3.85;;
45344;SDS011;31078;48.304;11.896;2023-04-25T05:41:25;28.25;;;3.90;;
45344;SDS011;31078;48.304;11.896;2023-04-25T05:43:51;19.00;;;4.03;;
45344;SDS011;31078;48.304;11.896;2023-04-25T05:46:18;9.88;;;3.10;;
45344;SDS011;31078;48.304;11.896;2023-04-25T05:48:44;17.30;;;3.35;;
45344;SDS011;31078;48.304;11.896;2023-04-25T05:51:11;17.70;;;3.55;;
45344;SDS011;31078;48.304;11.896;2023-04-25T05:53:37;11.82;;;2.90;;
45344;SDS011;31078;48.304;11.896;2023-04-25T05:56:05;25.80;;;3.83;;
45344;SDS011;31078;48.304;11.896;2023-04-25T05:58:32;18.33;;;3.35;;
45344;SDS011;31078;48.304;11.896;2023-04-25T06:00:58;33.72;;;4.55;;
45344;SDS011;31078;48.304;11.896;2023-04-25T06:03:25;19.58;;;3.33;;
45344;SDS011;31078;48.304;11.896;2023-04-25T06:05:51;15.93;;;3.22;;
45344;SDS011;31078;48.304;11.896;2023-04-25T06:08:18;21.35;;;3.47;;
45344;SDS011;31078;48.304;11.896;2023-04-25T06:10:44;10.77;;;3.83;;
45344;SDS011;31078;48.304;11.896;2023-04-25T06:13:12;20.35;;;3.78;;
45344;SDS011;31078;48.304;11.896;2023-04-25T06:15:39;20.05;;;3.42;;
45344;SDS011;31078;48.304;11.896;2023-04-25T06:18:06;22.65;;;3.80;;
45344;SDS011;31078;48.304;11.896;2023-04-25T06:20:33;10.23;;;2.97;;
45344;SDS011;31078;48.304;11.896;2023-04-25T06:22:59;25.92;;;4.35;;
45344;SDS011;31078;48.304;11.896;2023-04-25T06:25:25;19.63;;;3.78;;
45344;SDS011;31078;48.304;11.896;2023-04-25T06:27:52;22.65;;;3.80;;
45344;SDS011;31078;48.304;11.896;2023-04-25T06:30:20;17.10;;;3.80;;
45344;SDS011;31078;48.304;11.896;2023-04-25T06:32:50;17.00;;;3.97;;
45344;SDS011;31078;48.304;11.896;2023-04-25T06:35:17;9.85;;;3.30;;
45344;SDS011;31078;48.304;11.896;2023-04-25T06:37:44;21.00;;;4.22;;
45344;SDS011;31078;48.304;11.896;2023-04-25T06:40:10;19.27;;;4.25;;
45344;SDS011;31078;48.304;11.896;2023-04-25T06:42:37;8.77;;;3.15;;
45344;SDS011;31078;48.304;11.896;2023-04-25T06:45:04;16.58;;;3.97;;
45344;SDS011;31078;48.304;11.896;2023-04-25T06:47:32;13.15;;;3.33;;
45344;SDS011;31078;48.304;11.896;2023-04-25T06:49:58;12.20;;;3.50;;
45344;SDS011;31078;48.304;11.896;2023-04-25T06:52:25;17.48;;;4.20;;
45344;SDS011;31078;48.304;11.896;2023-04-25T06:54:51;12.80;;;4.10;;
45344;SDS011;31078;48.304;11.896;2023-04-25T06:57:17;17.05;;;4.85;;
45344;SDS011;31078;48.304;11.896;2023-04-25T06:59:44;16.23;;;4.65;;
45344;SDS011;31078;48.304;11.896;2023-04-25T07:02:10;15.23;;;4.70;;
45344;SDS011;31078;48.304;11.896;2023-04-25T07:04:38;10.63;;;4.30;;
45344;SDS011;31078;48.304;11.896;2023-04-25T07:07:05;11.82;;;4.50;;
45344;SDS011;31078;48.304;11.896;2023-04-25T07:09:31;11.52;;;4.32;;
45344;SDS011;31078;48.304;11.896;2023-04-25T07:11:59;7.13;;;3.95;;
45344;SDS011;31078;48.304;11.896;2023-04-25T07:14:26;9.50;;;4.45;;
45344;SDS011;31078;48.304;11.896;2023-04-25T07:16:52;9.90;;;4.53;;
45344;SDS011;31078;48.304;11.896;2023-04-25T07:19:20;9.35;;;4.90;;
45344;SDS011;31078;48.304;11.896;2023-04-25T07:21:50;11.35;;;4.85;;
45344;SDS011;31078;48.304;11.896;2023-04-25T07:24:16;14.32;;;5.75;;
45344;SDS011;31078;48.304;11.896;2023-04-25T07:26:43;11.35;;;5.57;;
45344;SDS011;31078;48.304;11.896;2023-04-25T07:29:09;14.40;;;5.25;;
45344;SDS011;31078;48.304;11.896;2023-04-25T07:31:36;14.30;;;5.90;;
45344;SDS011;31078;48.304;11.896;2023-04-25T07:34:02;15.48;;;5.57;;
45344;SDS011;31078;48.304;11.896;2023-04-25T07:36:29;12.77;;;5.50;;
45344;SDS011;31078;48.304;11.896;2023-04-25T07:38:57;15.70;;;6.50;;
45344;SDS011;31078;48.304;11.896;2023-04-25T07:41:23;9.43;;;5.18;;
45344;SDS011;31078;48.304;11.896;2023-04-25T07:43:50;7.10;;;4.85;;
45344;SDS011;31078;48.304;11.896;2023-04-25T07:46:16;8.35;;;5.10;;
45344;SDS011;31078;48.304;11.896;2023-04-25T07:48:43;11.45;;;5.45;;
45344;SDS011;31078;48.304;11.896;2023-04-25T07:51:09;16.50;;;5.88;;
45344;SDS011;31078;48.304;11.896;2023-04-25T07:53:35;19.98;;;6.18;;
45344;SDS011;31078;48.304;11.896;2023-04-25T07:56:04;22.60;;;6.30;;
45344;SDS011;31078;48.304;11.896;2023-04-25T07:58:31;19.55;;;5.55;;
45344;SDS011;31078;48.304;11.896;2023-04-25T08:00:57;33.63;;;8.18;;
45344;SDS011;31078;48.304;11.896;2023-04-25T08:03:24;15.15;;;5.88;;
45344;SDS011;31078;48.304;11.896;2023-04-25T08:05:50;17.25;;;5.80;;
45344;SDS011;31078;48.304;11.896;2023-04-25T08:08:16;12.05;;;5.35;;
45344;SDS011;31078;48.304;11.896;2023-04-25T08:10:43;15.88;;;5.00;;
45344;SDS011;31078;48.304;11.896;2023-04-25T08:13:11;23.25;;;5.28;;
45344;SDS011;31078;48.304;11.896;2023-04-25T08:15:37;26.42;;;5.10;;
45344;SDS011;31078;48.304;11.896;2023-04-25T08:18:04;11.40;;;4.45;;
45344;SDS011;31078;48.304;11.896;2023-04-25T08:20:30;11.10;;;3.58;;
45344;SDS011;31078;48.304;11.896;2023-04-25T08:22:57;16.73;;;4.47;;
45344;SDS011;31078;48.304;11.896;2023-04-25T08:25:23;9.85;;;3.17;;
45344;SDS011;31078;48.304;11.896;2023-04-25T08:27:50;14.05;;;3.83;;
45344;SDS011;31078;48.304;11.896;2023-04-25T08:30:18;18.92;;;5.00;;
45344;SDS011;31078;48.304;11.896;2023-04-25T08:32:44;7.63;;;3.33;;
45344;SDS011;31078;48.304;11.896;2023-04-25T08:35:11;9.70;;;3.30;;
45344;SDS011;31078;48.304;11.896;2023-04-25T08:37:37;11.38;;;3.03;;
45344;SDS011;31078;48.304;11.896;2023-04-25T08:40:04;12.18;;;4.10;;
45344;SDS011;31078;48.304;11.896;2023-04-25T08:42:32;9.85;;;3.33;;
45344;SDS011;31078;48.304;11.896;2023-04-25T08:45:00;6.65;;;3.40;;
45344;SDS011;31078;48.304;11.896;2023-04-25T08:47:29;7.88;;;2.88;;
45344;SDS011;31078;48.304;11.896;2023-04-25T08:49:56;5.75;;;3.17;;
45344;SDS011;31078;48.304;11.896;2023-04-25T08:52:22;5.40;;;3.65;;
45344;SDS011;31078;48.304;11.896;2023-04-25T08:54:49;6.60;;;2.78;;
45344;SDS011;31078;48.304;11.896;2023-04-25T08:57:18;4.25;;;2.90;;
45344;SDS011;31078;48.304;11.896;2023-04-25T08:59:45;7.47;;;2.97;;
45344;SDS011;31078;48.304;11.896;2023-04-25T09:02:13;6.72;;;2.72;;
45344;SDS011;31078;48.304;11.896;2023-04-25T09:04:43;12.77;;;3.60;;
45344;SDS011;31078;48.304;11.896;2023-04-25T09:07:10;22.00;;;4.90;;
45344;SDS011;31078;48.304;11.896;2023-04-25T09:09:37;15.95;;;4.32;;
45344;SDS011;31078;48.304;11.896;2023-04-25T09:12:04;11.40;;;3.65;;
45344;SDS011;31078;48.304;11.896;2023-04-25T09:14:31;19.35;;;3.90;;
45344;SDS011;31078;48.304;11.896;2023-04-25T09:17:01;14.95;;;4.50;;
45344;SDS011;31078;48.304;11.896;2023-04-25T09:19:30;20.10;;;4.22;;
45344;SDS011;31078;48.304;11.896;2023-04-25T09:22:00;7.85;;;3.72;;
45344;SDS011;31078;48.304;11.896;2023-04-25T09:24:31;6.65;;;3.25;;
45344;SDS011;31078;48.304;11.896;2023-04-25T09:26:58;8.27;;;3.33;;
45344;SDS011;31078;48.304;11.896;2023-04-25T09:29:29;8.75;;;3.38;;
45344;SDS011;31078;48.304;11.896;2023-04-25T09:34:43;5.47;;;2.85;;
45344;SDS011;31078;48.304;11.896;2023-04-25T09:37:16;6.32;;;2.92;;
45344;SDS011;31078;48.304;11.896;2023-04-25T09:39:44;19.00;;;4.10;;
45344;SDS011;31078;48.304;11.896;2023-04-25T09:42:11;18.88;;;3.83;;
45344;SDS011;31078;48.304;11.896;2023-04-25T09:44:37;13.25;;;3.53;;
45344;SDS011;31078;48.304;11.896;2023-04-25T09:47:09;9.35;;;4.13;;
45344;SDS011;31078;48.304;11.896;2023-04-25T09:49:38;14.57;;;3.90;;
45344;SDS011;31078;48.304;11.896;2023-04-25T09:52:05;12.32;;;3.83;;
45344;SDS011;31078;48.304;11.896;2023-04-25T09:54:33;6.82;;;3.60;;
45344;SDS011;31078;48.304;11.896;2023-04-25T09:57:00;4.35;;;2.78;;
45344;SDS011;31078;48.304;11.896;2023-04-25T09:59:37;15.02;;;4.13;;
45344;SDS011;31078;48.304;11.896;2023-04-25T10:02:06;12.88;;;3.72;;
45344;SDS011;31078;48.304;11.896;2023-04-25T10:04:34;5.53;;;2.70;;
45344;SDS011;31078;48.304;11.896;2023-04-25T10:07:01;15.98;;;3.13;;
45344;SDS011;31078;48.304;11.896;2023-04-25T10:09:30;3.00;;;2.28;;
45344;SDS011;31078;48.304;11.896;2023-04-25T10:12:00;15.43;;;3.20;;
45344;SDS011;31078;48.304;11.896;2023-04-25T10:14:26;18.33;;;3.58;;
45344;SDS011;31078;48.304;11.896;2023-04-25T10:16:54;15.85;;;2.95;;
45344;SDS011;31078;48.304;11.896;2023-04-25T10:19:21;8.98;;;2.33;;
45344;SDS011;31078;48.304;11.896;2023-04-25T10:21:49;14.30;;;3.53;;
45344;SDS011;31078;48.304;11.896;2023-04-25T10:24:18;6.35;;;3.08;;
45344;SDS011;31078;48.304;11.896;2023-04-25T10:26:46;5.13;;;3.00;;
45344;SDS011;31078;48.304;11.896;2023-04-25T10:29:15;5.80;;;2.58;;
45344;SDS011;31078;48.304;11.896;2023-04-25T10:31:48;6.15;;;3.05;;
45344;SDS011;31078;48.304;11.896;2023-04-25T10:34:15;6.50;;;2.90;;
45344;SDS011;31078;48.304;11.896;2023-04-25T10:36:41;4.32;;;2.50;;
45344;SDS011;31078;48.304;11.896;2023-04-25T10:39:08;5.78;;;2.90;;
45344;SDS011;31078;48.304;11.896;2023-04-25T10:41:48;6.68;;;2.80;;
45344;SDS011;31078;48.304;11.896;2023-04-25T10:44:21;6.32;;;2.70;;
45344;SDS011;31078;48.304;11.896;2023-04-25T10:46:47;3.80;;;2.30;;
45344;SDS011;31078;48.304;11.896;2023-04-25T10:49:28;4.10;;;2.63;;
45344;SDS011;31078;48.304;11.896;2023-04-25T10:52:10;5.63;;;2.60;;
45344;SDS011;31078;48.304;11.896;2023-04-25T10:54:40;4.70;;;3.07;;
45344;SDS011;31078;48.304;11.896;2023-04-25T10:57:07;8.27;;;3.17;;
45344;SDS011;31078;48.304;11.896;2023-04-25T10:59:35;5.40;;;2.78;;
45344;SDS011;31078;48.304;11.896;2023-04-25T11:02:01;6.30;;;3.50;;
45344;SDS011;31078;48.304;11.896;2023-04-25T11:04:38;5.38;;;2.40;;
45344;SDS011;31078;48.304;11.896;2023-04-25T11:07:07;3.38;;;2.15;;
45344;SDS011;31078;48.304;11.896;2023-04-25T11:12:07;4.90;;;1.92;;
45344;SDS011;31078;48.304;11.896;2023-04-25T11:14:35;2.65;;;1.85;;
45344;SDS011;31078;48.304;11.896;2023-04-25T11:17:02;6.47;;;2.72;;
45344;SDS011;31078;48.304;11.896;2023-04-25T11:19:28;5.07;;;3.10;;
45344;SDS011;31078;48.304;11.896;2023-04-25T11:21:55;6.55;;;3.00;;
45344;SDS011;31078;48.304;11.896;2023-04-25T11:24:25;5.20;;;3.03;;
45344;SDS011;31078;48.304;11.896;2023-04-25T11:26:52;3.83;;;2.70;;
45344;SDS011;31078;48.304;11.896;2023-04-25T11:29:21;5.63;;;2.67;;
45344;SDS011;31078;48.304;11.896;2023-04-25T11:31:49;4.28;;;2.08;;
45344;SDS011;31078;48.304;11.896;2023-04-25T11:34:16;32.90;;;4.22;;
45344;SDS011;31078;48.304;11.896;2023-04-25T11:36:43;19.30;;;3.15;;
45344;SDS011;31078;48.304;11.896;2023-04-25T11:39:11;16.52;;;4.30;;
45344;SDS011;31078;48.304;11.896;2023-04-25T11:41:38;20.05;;;4.97;;
45344;SDS011;31078;48.304;11.896;2023-04-25T11:44:05;15.57;;;5.03;;
45344;SDS011;31078;48.304;11.896;2023-04-25T11:46:33;15.43;;;4.80;;
45344;SDS011;31078;48.304;11.896;2023-04-25T11:49:01;12.27;;;5.07;;
45344;SDS011;31078;48.304;11.896;2023-04-25T11:51:28;7.65;;;5.07;;
45344;SDS011;31078;48.304;11.896;2023-04-25T11:53:55;5.78;;;4.10;;
45344;SDS011;31078;48.304;11.896;2023-04-25T11:56:21;9.93;;;3.72;;
45344;SDS011;31078;48.304;11.896;2023-04-25T11:58:55;14.85;;;4.10;;
45344;SDS011;31078;48.304;11.896;2023-04-25T12:01:27;6.68;;;3.80;;
45344;SDS011;31078;48.304;11.896;2023-04-25T12:03:55;7.30;;;4.07;;
45344;SDS011;31078;48.304;11.896;2023-04-25T12:06:23;5.57;;;3.47;;
45344;SDS011;31078;48.304;11.896;2023-04-25T12:08:59;5.35;;;3.20;;
45344;SDS011;31078;48.304;11.896;2023-04-25T12:11:26;4.95;;;3.25;;
45344;SDS011;31078;48.304;11.896;2023-04-25T12:13:52;5.88;;;3.50;;
45344;SDS011;31078;48.304;11.896;2023-04-25T12:16:19;3.95;;;2.85;;
45344;SDS011;31078;48.304;11.896;2023-04-25T12:18:45;8.82;;;4.32;;
45344;SDS011;31078;48.304;11.896;2023-04-25T12:21:12;13.35;;;4.75;;
45344;SDS011;31078;48.304;11.896;2023-04-25T12:23:40;12.40;;;4.82;;
45344;SDS011;31078;48.304;11.896;2023-04-25T12:26:07;12.18;;;4.50;;
45344;SDS011;31078;48.304;11.896;2023-04-25T12:28:33;14.77;;;3.53;;
45344;SDS011;31078;48.304;11.896;2023-04-25T12:31:00;24.98;;;4.78;;
45344;SDS011;31078;48.304;11.896;2023-04-25T12:33:28;15.13;;;4.20;;
45344;SDS011;31078;48.304;11.896;2023-04-25T12:35:56;12.23;;;2.90;;
45344;SDS011;31078;48.304;11.896;2023-04-25T12:38:24;6.50;;;3.50;;
45344;SDS011;31078;48.304;11.896;2023-04-25T12:40:55;8.43;;;3.92;;
45344;SDS011;31078;48.304;11.896;2023-04-25T12:43:23;5.13;;;3.38;;
45344;SDS011;31078;48.304;11.896;2023-04-25T12:45:50;6.13;;;3.42;;
45344;SDS011;31078;48.304;11.896;2023-04-25T12:48:21;6.53;;;3.47;;
45344;SDS011;31078;48.304;11.896;2023-04-25T12:50:51;6.43;;;3.10;;
45344;SDS011;31078;48.304;11.896;2023-04-25T12:53:18;3.25;;;2.28;;
45344;SDS011;31078;48.304;11.896;2023-04-25T12:55:45;10.07;;;2.95;;
45344;SDS011;31078;48.304;11.896;2023-04-25T12:58:14;5.28;;;2.60;;
45344;SDS011;31078;48.304;11.896;2023-04-25T13:00:40;12.00;;;3.33;;
45344;SDS011;31078;48.304;11.896;2023-04-25T13:03:08;4.72;;;3.15;;
45344;SDS011;31078;48.304;11.896;2023-04-25T13:05:37;6.00;;;3.33;;
45344;SDS011;31078;48.304;11.896;2023-04-25T13:08:04;4.07;;;2.88;;
45344;SDS011;31078;48.304;11.896;2023-04-25T13:10:31;3.47;;;2.58;;
45344;SDS011;31078;48.304;11.896;2023-04-25T13:12:58;10.38;;;2.88;;
45344;SDS011;31078;48.304;11.896;2023-04-25T13:15:27;4.30;;;2.42;;
45344;SDS011;31078;48.304;11.896;2023-04-25T13:17:53;2.95;;;2.30;;
45344;SDS011;31078;48.304;11.896;2023-04-25T13:20:20;11.85;;;3.40;;
45344;SDS011;31078;48.304;11.896;2023-04-25T13:22:48;17.13;;;3.47;;
45344;SDS011;31078;48.304;11.896;2023-04-25T13:25:14;13.35;;;3.42;;
45344;SDS011;31078;48.304;11.896;2023-04-25T13:27:41;14.20;;;3.75;;
45344;SDS011;31078;48.304;11.896;2023-04-25T13:30:09;18.70;;;3.53;;
45344;SDS011;31078;48.304;11.896;2023-04-25T13:32:37;8.57;;;3.20;;
45344;SDS011;31078;48.304;11.896;2023-04-25T13:35:04;11.73;;;3.28;;
45344;SDS011;31078;48.304;11.896;2023-04-25T13:37:33;14.00;;;4.18;;
45344;SDS011;31078;48.304;11.896;2023-04-25T13:40:00;10.65;;;4.30;;
45344;SDS011;31078;48.304;11.896;2023-04-25T13:42:29;10.98;;;4.43;;
45344;SDS011;31078;48.304;11.896;2023-04-25T13:44:56;4.57;;;3.25;;
45344;SDS011;31078;48.304;11.896;2023-04-25T13:47:23;2.85;;;1.83;;
45344;SDS011;31078;48.304;11.896;2023-04-25T13:49:51;1.83;;;1.30;;
45344;SDS011;31078;48.304;11.896;2023-04-25T13:52:17;3.28;;;1.75;;
45344;SDS011;31078;48.304;11.896;2023-04-25T13:54:44;2.50;;;1.80;;
45344;SDS011;31078;48.304;11.896;2023-04-25T13:57:10;4.28;;;1.50;;
45344;SDS011;31078;48.304;11.896;2023-04-25T13:59:37;2.58;;;1.27;;
45344;SDS011;31078;48.304;11.896;2023-04-25T14:02:04;2.42;;;1.08;;
45344;SDS011;31078;48.304;11.896;2023-04-25T14:04:30;2.03;;;1.42;;
45344;SDS011;31078;48.304;11.896;2023-04-25T14:06:59;1.65;;;1.20;;
45344;SDS011;31078;48.304;11.896;2023-04-25T14:09:25;4.93;;;2.15;;
45344;SDS011;31078;48.304;11.896;2023-04-25T14:11:52;2.40;;;1.52;;
45344;SDS011;31078;48.304;11.896;2023-04-25T14:14:19;2.47;;;1.55;;
45344;SDS011;31078;48.304;11.896;2023-04-25T14:16:45;3.20;;;1.40;;
45344;SDS011;31078;48.304;11.896;2023-04-25T14:19:13;6.55;;;1.80;;
45344;SDS011;31078;48.304;11.896;2023-04-25T14:21:39;16.27;;;2.60;;
45344;SDS011;31078;48.304;11.896;2023-04-25T14:24:07;11.32;;;1.85;;
45344;SDS011;31078;48.304;11.896;2023-04-25T14:26:34;14.20;;;2.22;;
45344;SDS011;31078;48.304;11.896;2023-04-25T14:29:01;3.60;;;1.35;;
45344;SDS011;31078;48.304;11.896;2023-04-25T14:31:28;2.15;;;1.35;;